Time;durP1;ratioP1;P1;durP2;ratioP2;P2;SDS_P1;SDS_P2;PMS_P1;PMS_P2;Temp;Humidity;BMP_temperature;BMP_pressure;BME280_temperature;BME280_humidity;BME280_pressure;Samples;Min_cycle;Max_cycle;Signal;HPM_P1;HPM_P2
2020/12/28 00:02:42;;;;;;;29.00;9.20;;;;;;;0.49;77.76;97132.86;2178605;82;21725;-68
2020/12/28 00:05:44;;;;;;;27.77;9.95;;;;;;;0.51;77.64;97136.19;2179059;82;21183;-65
2020/12/28 00:08:47;;;;;;;37.85;13.38;;;;;;;0.53;77.58;97132.24;2178730;82;21324;-64
2020/12/28 00:11:49;;;;;;;26.00;8.48;;;;;;;0.58;77.48;97126.42;2178951;82;21123;-66
2020/12/28 00:14:51;;;;;;;27.77;9.60;;;;;;;0.63;77.71;97121.86;2178847;82;21269;-65
2020/12/28 00:17:53;;;;;;;27.67;9.40;;;;;;;0.68;77.72;97121.20;2179072;82;21146;-65
2020/12/28 00:20:56;;;;;;;28.32;9.20;;;;;;;0.73;77.69;97118.39;2178688;82;21191;-65
2020/12/28 00:23:58;;;;;;;26.95;8.85;;;;;;;0.79;77.78;97106.46;2179036;82;21324;-65
2020/12/28 00:27:00;;;;;;;30.80;9.50;;;;;;;0.85;77.65;97112.64;2178593;82;21272;-65
2020/12/28 00:30:02;;;;;;;28.50;9.73;;;;;;;0.91;77.66;97099.88;2179051;82;21155;-65
2020/12/28 00:33:04;;;;;;;29.70;9.80;;;;;;;0.96;77.58;97095.31;2178845;82;21288;-66
2020/12/28 00:36:07;;;;;;;27.65;9.75;;;;;;;0.97;77.64;97084.08;2179055;82;21115;-65
2020/12/28 00:39:09;;;;;;;27.62;8.95;;;;;;;1.00;77.56;97086.03;2178650;82;21744;-65
2020/12/28 00:42:11;;;;;;;26.35;9.23;;;;;;;1.03;77.80;97086.34;2178872;82;21155;-65
2020/12/28 00:45:13;;;;;;;27.25;8.83;;;;;;;1.02;77.63;97082.94;2178681;82;21142;-65
2020/12/28 00:48:15;;;;;;;24.63;8.28;;;;;;;1.06;77.65;97082.78;2178768;82;21713;-65
2020/12/28 00:51:17;;;;;;;29.23;9.35;;;;;;;1.06;77.59;97072.45;2178528;82;21269;-65
2020/12/28 00:54:19;;;;;;;27.30;9.13;;;;;;;1.11;77.64;97074.36;2178560;82;21752;-70
2020/12/28 00:57:21;;;;;;;28.17;8.30;;;;;;;1.10;77.70;97079.13;2167761;81;21287;-66
2020/12/28 01:00:24;;;;;;;26.15;9.30;;;;;;;1.16;77.80;97077.52;2161346;82;21304;-69
2020/12/28 01:03:26;;;;;;;27.35;9.13;;;;;;;1.20;77.65;97070.00;2161307;82;21309;-67
2020/12/28 01:06:28;;;;;;;26.05;8.43;;;;;;;1.26;77.71;97070.14;2161299;82;21277;-67
2020/12/28 01:09:30;;;;;;;26.57;8.98;;;;;;;1.31;77.70;97056.55;2161327;82;21710;-66
2020/12/28 01:12:32;;;;;;;24.90;7.95;;;;;;;1.34;77.76;97052.51;2161270;82;21690;-67
2020/12/28 01:15:34;;;;;;;24.92;8.20;;;;;;;1.31;77.82;97045.75;2161628;82;21285;-67
2020/12/28 01:18:37;;;;;;;23.45;7.30;;;;;;;1.30;78.02;97035.50;2161370;82;21282;-68
2020/12/28 01:21:39;;;;;;;23.83;7.15;;;;;;;1.27;78.15;97027.91;2161096;82;21143;-67
2020/12/28 01:24:41;;;;;;;24.95;7.58;;;;;;;1.26;78.73;97023.19;2161480;82;21285;-69
2020/12/28 01:27:43;;;;;;;23.02;7.00;;;;;;;1.27;78.72;97004.20;2161603;82;21262;-70
2020/12/28 01:30:46;;;;;;;26.73;8.30;;;;;;;1.33;78.60;97004.33;2161340;82;21725;-69
2020/12/28 01:33:48;;;;;;;22.17;6.97;;;;;;;1.36;78.50;97007.57;2161448;82;21298;-70
2020/12/28 01:36:50;;;;;;;22.82;6.72;;;;;;;1.34;78.58;96998.26;2161107;82;21123;-67
2020/12/28 01:39:52;;;;;;;22.05;6.60;;;;;;;1.36;78.99;96994.66;2161353;82;21281;-69
2020/12/28 01:42:54;;;;;;;22.05;6.17;;;;;;;1.43;79.13;96993.88;2161530;82;21305;-68
2020/12/28 01:46:00;;;;;;;19.87;5.47;;;;;;;1.46;79.26;96983.37;2161029;82;21128;-67
2020/12/28 01:49:00;;;;;;;20.30;6.17;;;;;;;1.52;80.12;96983.51;2160907;82;21128;-64
2020/12/28 01:52:02;;;;;;;18.85;5.53;;;;;;;1.57;79.68;96977.64;2161315;82;21277;-65
2020/12/28 01:55:04;;;;;;;20.23;5.55;;;;;;;1.63;80.23;96972.61;2161326;82;21293;-65
2020/12/28 01:58:07;;;;;;;21.60;5.72;;;;;;;1.66;79.91;96953.05;2174460;81;21297;-65
2020/12/28 02:01:09;;;;;;;18.25;4.95;;;;;;;1.69;80.60;96939.48;2178633;82;21320;-65
2020/12/28 02:04:11;;;;;;;20.77;6.28;;;;;;;1.73;80.32;96934.98;2178951;82;21158;-65
2020/12/28 02:07:14;;;;;;;18.40;4.70;;;;;;;1.75;80.41;96931.84;2178387;82;21130;-65
2020/12/28 02:10:16;;;;;;;16.32;4.35;;;;;;;1.77;80.63;96917.55;2178575;82;21292;-65
2020/12/28 02:13:18;;;;;;;17.73;5.30;;;;;;;1.79;81.01;96917.02;2178604;82;21728;-65
2020/12/28 02:16:20;;;;;;;18.82;5.70;;;;;;;1.81;80.75;96921.63;2178715;82;21288;-67
2020/12/28 02:19:23;;;;;;;17.82;5.40;;;;;;;1.83;80.47;96911.58;2178710;82;21257;-65
2020/12/28 02:22:25;;;;;;;15.63;4.30;;;;;;;1.85;80.55;96898.13;2178680;82;21320;-66
2020/12/28 02:25:27;;;;;;;17.82;4.45;;;;;;;1.88;80.97;96907.00;2178487;82;21293;-66
2020/12/28 02:28:30;;;;;;;;;;;;;;;1.89;81.00;96892.30;2181040;82;21587;-66
2020/12/28 02:31:32;;;;;;;17.43;4.30;;;;;;;1.92;81.25;96893.42;2178938;82;20126;-65
2020/12/28 02:34:34;;;;;;;16.82;5.00;;;;;;;1.92;81.27;96871.44;2178477;82;21292;-66
2020/12/28 02:37:37;;;;;;;18.60;4.50;;;;;;;1.93;80.90;96886.05;2178567;82;21570;-66
2020/12/28 02:40:42;;;;;;;16.95;4.50;;;;;;;1.95;81.03;96891.13;2178572;82;21280;-65
2020/12/28 02:43:44;;;;;;;16.70;4.40;;;;;;;1.96;81.52;96883.75;2178413;82;21320;-65
2020/12/28 02:46:46;;;;;;;16.23;4.30;;;;;;;1.98;81.72;96878.84;2178476;82;21323;-66
2020/12/28 02:49:48;;;;;;;16.75;4.55;;;;;;;2.00;81.49;96882.66;2178698;82;21142;-65
2020/12/28 02:52:50;;;;;;;17.17;4.30;;;;;;;2.00;81.73;96871.02;2178683;82;21725;-66
2020/12/28 02:55:52;;;;;;;17.30;4.78;;;;;;;2.01;81.84;96878.69;2178602;82;21297;-68
2020/12/28 02:58:55;;;;;;;20.00;4.75;;;;;;;2.04;81.26;96867.31;2162064;81;21325;-66
2020/12/28 03:01:57;;;;;;;19.75;4.97;;;;;;;2.03;81.61;96866.48;2161640;82;21325;-66
2020/12/28 03:04:59;;;;;;;18.85;5.05;;;;;;;2.03;81.52;96861.79;2161596;82;21265;-65
2020/12/28 03:08:01;;;;;;;17.27;4.55;;;;;;;2.04;81.46;96853.94;2161734;82;21280;-67
2020/12/28 03:11:04;;;;;;;15.78;5.08;;;;;;;2.04;81.74;96851.35;2161218;82;21262;-67
2020/12/28 03:14:06;;;;;;;16.52;4.53;;;;;;;2.07;81.47;96847.77;2161474;82;21281;-67
2020/12/28 03:17:08;;;;;;;17.67;4.87;;;;;;;2.07;82.06;96842.12;2161231;82;21282;-70
2020/12/28 03:20:10;;;;;;;17.20;4.85;;;;;;;2.05;81.85;96834.07;2161175;82;21269;-68
2020/12/28 03:23:12;;;;;;;16.17;4.53;;;;;;;2.06;81.93;96830.57;2161352;82;21582;-67
2020/12/28 03:26:14;;;;;;;16.05;4.60;;;;;;;2.04;82.54;96825.48;2161217;82;21285;-65
2020/12/28 03:29:16;;;;;;;17.35;4.22;;;;;;;2.04;82.51;96817.73;2161195;82;21258;-65
2020/12/28 03:32:18;;;;;;;15.32;4.22;;;;;;;2.06;82.15;96818.47;2161687;82;21281;-70
2020/12/28 03:35:21;;;;;;;15.65;3.90;;;;;;;2.06;82.86;96808.12;2161465;82;21290;-70
2020/12/28 03:38:23;;;;;;;15.10;4.12;;;;;;;2.05;82.87;96796.57;2161352;82;21590;-66
2020/12/28 03:41:25;;;;;;;13.43;4.03;;;;;;;2.06;82.47;96795.19;2161307;82;21669;-67
2020/12/28 03:44:27;;;;;;;18.07;4.47;;;;;;;2.08;82.81;96812.75;2161701;82;21282;-66
2020/12/28 03:47:30;;;;;;;15.63;3.98;;;;;;;2.11;82.38;96809.61;2161288;82;21143;-70
2020/12/28 03:50:32;;;;;;;16.87;4.60;;;;;;;2.13;82.99;96807.30;2161341;82;21698;-70
2020/12/28 03:53:35;;;;;;;15.20;3.77;;;;;;;2.16;82.71;96803.71;2161118;82;21270;-66
2020/12/28 03:56:37;;;;;;;14.75;4.00;;;;;;;2.18;82.62;96801.38;2162746;81;21702;-66
2020/12/28 03:59:39;;;;;;;15.78;4.05;;;;;;;2.20;82.89;96783.21;2179094;82;21131;-71
2020/12/28 04:02:41;;;;;;;14.40;3.87;;;;;;;2.22;82.62;96778.77;2178581;82;21296;-67
2020/12/28 04:05:43;;;;;;;14.47;3.70;;;;;;;2.23;83.10;96780.44;2178638;82;21268;-67
2020/12/28 04:08:46;;;;;;;17.15;3.72;;;;;;;2.24;82.75;96776.91;2150827;82;21562;-67
2020/12/28 04:11:48;;;;;;;12.28;3.60;;;;;;;2.25;83.17;96781.98;2179060;82;21158;-66
2020/12/28 04:14:50;;;;;;;13.90;4.00;;;;;;;2.29;82.54;96793.00;2178767;82;21296;-67
2020/12/28 04:17:52;;;;;;;14.85;3.80;;;;;;;2.30;82.87;96797.25;2150863;82;21284;-66
2020/12/28 04:20:54;;;;;;;12.85;3.60;;;;;;;2.34;83.08;96817.29;2178887;82;21141;-67
2020/12/28 04:23:57;;;;;;;13.62;3.60;;;;;;;2.36;83.05;96831.80;2178563;82;21284;-69
2020/12/28 04:26:59;;;;;;;13.83;3.95;;;;;;;2.40;82.97;96820.36;2178712;82;21724;-67
2020/12/28 04:30:01;;;;;;;13.65;3.52;;;;;;;2.44;82.59;96826.16;2178833;82;21252;-70
2020/12/28 04:33:03;;;;;;;12.73;3.37;;;;;;;2.46;82.76;96815.27;2178566;82;21724;-66
2020/12/28 04:36:05;;;;;;;11.60;3.12;;;;;;;2.48;82.64;96796.59;2179088;82;21126;-65
2020/12/28 04:39:07;;;;;;;13.28;3.60;;;;;;;2.49;82.91;96793.56;2178810;82;21158;-65
2020/12/28 04:42:09;;;;;;;16.73;4.20;;;;;;;2.51;82.65;96786.05;2178852;82;21272;-65
2020/12/28 04:45:12;;;;;;;17.00;4.30;;;;;;;2.52;82.66;96812.78;2179069;82;21138;-66
2020/12/28 04:48:14;;;;;;;15.43;4.03;;;;;;;2.51;82.67;96817.58;2178798;82;21717;-65
2020/12/28 04:51:16;;;;;;;16.73;4.28;;;;;;;2.51;82.69;96817.10;2178524;82;21123;-70
2020/12/28 04:54:18;;;;;;;18.07;4.90;;;;;;;2.50;83.44;96810.73;2178553;82;21284;-69
2020/12/28 04:57:20;;;;;;;18.07;5.08;;;;;;;2.51;83.40;96804.63;2178466;81;21729;-66
2020/12/28 05:00:23;;;;;;;18.17;4.90;;;;;;;2.52;83.61;96806.31;2178756;82;21709;-65
2020/12/28 05:03:25;;;;;;;16.10;4.05;;;;;;;2.54;83.30;96804.00;2178503;82;21332;-67
2020/12/28 05:06:28;;;;;;;;;;;;;;;2.55;83.13;96803.53;2181498;82;21130;-65
2020/12/28 05:09:30;;;;;;;38.27;12.67;;;;;;;2.57;83.15;96791.31;2178728;82;20516;-65
2020/12/28 05:12:32;;;;;;;27.77;8.65;;;;;;;2.58;83.22;96799.45;2179028;82;21138;-65
2020/12/28 05:15:34;;;;;;;17.15;4.37;;;;;;;2.57;83.13;96794.75;2178677;82;21154;-66
2020/12/28 05:18:36;;;;;;;18.98;5.22;;;;;;;2.57;83.30;96795.20;2179017;82;21177;-65
2020/12/28 05:21:38;;;;;;;17.70;4.83;;;;;;;2.58;83.26;96795.57;2178435;82;21253;-66
2020/12/28 05:24:41;;;;;;;15.20;4.28;;;;;;;2.58;83.12;96798.98;2178673;82;21697;-65
2020/12/28 05:27:43;;;;;;;10.85;3.10;;;;;;;2.59;83.28;96779.13;2179024;82;21107;-65
2020/12/28 05:30:45;;;;;;;15.30;3.72;;;;;;;2.58;83.27;96798.16;2178731;82;21582;-65
2020/12/28 05:33:48;;;;;;;13.25;3.92;;;;;;;2.58;82.98;96794.28;2178544;82;21272;-65
2020/12/28 05:36:50;;;;;;;16.70;4.67;;;;;;;2.51;83.15;96794.28;2178984;82;21139;-65
2020/12/28 05:39:52;;;;;;;18.20;4.75;;;;;;;2.43;82.86;96789.59;2178508;82;21264;-66
2020/12/28 05:42:54;;;;;;;18.62;5.05;;;;;;;2.36;83.09;96794.77;2150769;82;21744;-65
2020/12/28 05:45:56;;;;;;;20.37;5.70;;;;;;;2.28;83.05;96785.33;2178505;82;21297;-65
2020/12/28 05:48:58;;;;;;;21.00;6.15;;;;;;;2.20;82.95;96784.50;2178689;82;21714;-64
2020/12/28 05:52:01;;;;;;;21.62;6.42;;;;;;;2.14;83.05;96779.23;2178504;82;21286;-65
2020/12/28 05:55:03;;;;;;;20.12;6.03;;;;;;;2.06;83.27;96786.13;2178749;82;21253;-65
2020/12/28 05:58:05;;;;;;;22.13;6.58;;;;;;;1.99;83.72;96787.42;2178502;81;21733;-65
2020/12/28 06:01:07;;;;;;;20.32;6.35;;;;;;;1.94;83.45;96786.88;2178472;82;21257;-65
2020/12/28 06:04:09;;;;;;;23.20;7.95;;;;;;;1.86;83.79;96784.72;2178853;82;21158;-65
2020/12/28 06:07:12;;;;;;;19.60;5.90;;;;;;;1.82;83.69;96769.48;2178748;82;21154;-69
2020/12/28 06:10:14;;;;;;;20.55;6.37;;;;;;;1.78;84.14;96762.83;2178608;82;21256;-65
2020/12/28 06:13:16;;;;;;;20.85;6.20;;;;;;;1.76;84.00;96757.75;2178620;82;21337;-65
2020/12/28 06:16:18;;;;;;;20.48;6.22;;;;;;;1.72;84.44;96764.02;2178758;82;21277;-65
2020/12/28 06:19:20;;;;;;;20.37;5.92;;;;;;;1.72;84.20;96762.28;2178944;82;21142;-69
2020/12/28 06:22:22;;;;;;;20.60;5.62;;;;;;;1.71;84.19;96755.44;2178471;82;21304;-66
2020/12/28 06:25:24;;;;;;;18.87;5.45;;;;;;;1.72;84.86;96766.16;2179009;82;21150;-67
2020/12/28 06:28:26;;;;;;;20.57;5.20;;;;;;;1.76;84.74;96757.75;2178733;82;21712;-66
2020/12/28 06:31:29;;;;;;;18.95;5.12;;;;;;;1.80;85.08;96772.63;2178691;82;21293;-67
2020/12/28 06:34:31;;;;;;;20.60;5.53;;;;;;;1.80;85.43;96764.88;2178722;82;22061;-67
2020/12/28 06:37:33;;;;;;;18.10;5.40;;;;;;;1.83;85.52;96761.64;2178475;82;21253;-70
2020/12/28 06:40:35;;;;;;;17.17;5.12;;;;;;;1.90;84.86;96764.70;2178588;82;21740;-68
2020/12/28 06:43:37;;;;;;;17.42;5.08;;;;;;;1.91;85.32;96750.83;2178889;82;21154;-65
2020/12/28 06:46:39;;;;;;;18.37;5.17;;;;;;;1.95;85.34;96755.38;2178581;82;21284;-66
2020/12/28 06:49:42;;;;;;;17.57;4.97;;;;;;;1.99;85.56;96764.63;2150573;82;21276;-64
2020/12/28 06:52:44;;;;;;;;;;;;;;;2.02;85.13;96765.73;2181056;82;21737;-64
2020/12/28 06:55:46;;;;;;;18.73;4.97;;;;;;;2.04;84.63;96762.13;2178901;82;20229;-64
2020/12/28 06:58:48;;;;;;;18.98;5.25;;;;;;;2.06;84.94;96767.21;2178701;81;21288;-65
2020/12/28 07:01:50;;;;;;;18.10;5.08;;;;;;;2.06;84.88;96773.20;2178375;82;21151;-66
2020/12/28 07:04:53;;;;;;;19.42;5.35;;;;;;;2.09;84.87;96777.37;2178675;82;21709;-65
2020/12/28 07:07:55;;;;;;;19.02;5.22;;;;;;;2.08;84.72;96769.23;2178454;82;21728;-65
2020/12/28 07:10:57;;;;;;;19.00;5.35;;;;;;;2.10;84.67;96771.28;2178519;82;21728;-65
2020/12/28 07:14:00;;;;;;;15.68;4.95;;;;;;;2.11;84.82;96771.63;2178716;82;21277;-64
2020/12/28 07:17:02;;;;;;;18.12;5.35;;;;;;;2.13;84.27;96770.27;2178910;82;21257;-65
2020/12/28 07:20:05;;;;;;;18.57;5.53;;;;;;;2.14;84.34;96757.25;2178538;82;21280;-64
2020/12/28 07:23:08;;;;;;;18.15;5.00;;;;;;;2.19;84.37;96756.49;2178520;82;21721;-65
2020/12/28 07:26:10;;;;;;;17.32;5.33;;;;;;;2.22;84.46;96752.89;2150589;82;21166;-65
2020/12/28 07:29:12;;;;;;;17.35;4.80;;;;;;;2.28;84.56;96746.52;2178520;82;21281;-64
2020/12/28 07:32:14;;;;;;;18.65;5.03;;;;;;;2.34;84.65;96734.50;2178415;82;21257;-66
2020/12/28 07:35:16;;;;;;;18.17;5.05;;;;;;;2.37;84.45;96727.84;2178658;82;21725;-64
2020/12/28 07:38:19;;;;;;;16.05;4.62;;;;;;;2.41;84.49;96717.67;2178654;82;21712;-65
2020/12/28 07:41:22;;;;;;;18.70;4.85;;;;;;;2.47;84.56;96712.14;2150540;82;21736;-64
2020/12/28 07:44:24;;;;;;;18.60;5.00;;;;;;;2.54;84.69;96709.53;2178651;82;21285;-65
2020/12/28 07:47:26;;;;;;;18.35;5.08;;;;;;;2.62;84.48;96702.58;2179121;82;21147;-68
2020/12/28 07:50:29;;;;;;;20.08;5.50;;;;;;;2.71;84.24;96696.80;2178698;82;21285;-68
2020/12/28 07:53:31;;;;;;;19.00;5.30;;;;;;;2.84;84.22;96679.20;2179108;82;21256;-69
2020/12/28 07:56:33;;;;;;;20.92;5.92;;;;;;;2.95;84.09;96672.88;2178810;82;21776;-65
2020/12/28 07:59:35;;;;;;;20.60;5.40;;;;;;;3.06;84.12;96676.05;2166028;81;21337;-65
2020/12/28 08:02:37;;;;;;;18.52;4.97;;;;;;;3.22;83.86;96687.54;2161429;82;21730;-66
2020/12/28 08:05:40;;;;;;;18.02;5.03;;;;;;;3.35;83.76;96674.61;2161174;82;21151;-70
2020/12/28 08:08:42;;;;;;;18.42;4.90;;;;;;;3.50;83.58;96677.97;2161620;82;21289;-68
2020/12/28 08:11:44;;;;;;;20.55;5.35;;;;;;;3.66;83.28;96671.28;2161403;82;21723;-70
2020/12/28 08:14:46;;;;;;;19.07;5.22;;;;;;;3.78;82.97;96666.58;2161170;82;21175;-70
2020/12/28 08:17:48;;;;;;;18.02;5.00;;;;;;;3.93;82.75;96660.80;2161360;82;21273;-66
2020/12/28 08:20:50;;;;;;;17.65;5.22;;;;;;;4.08;82.53;96683.10;2161361;82;21301;-65
2020/12/28 08:23:52;;;;;;;15.63;4.45;;;;;;;4.22;82.21;96648.87;2161488;82;21297;-65
2020/12/28 08:26:54;;;;;;;19.10;4.92;;;;;;;4.32;81.56;96628.66;2161187;82;21127;-66
2020/12/28 08:29:57;;;;;;;18.10;5.03;;;;;;;4.44;81.32;96630.00;2161268;82;21773;-65
2020/12/28 08:32:59;;;;;;;18.45;5.25;;;;;;;4.56;80.88;96622.65;2161639;82;21281;-66
2020/12/28 08:36:02;;;;;;;16.97;4.70;;;;;;;4.66;80.68;96625.42;2161177;82;21285;-65
2020/12/28 08:39:04;;;;;;;16.27;4.55;;;;;;;4.79;79.97;96630.08;2161267;82;21722;-65
2020/12/28 08:42:06;;;;;;;17.00;4.97;;;;;;;4.88;80.09;96618.19;2161598;82;21203;-65
2020/12/28 08:45:08;;;;;;;18.25;5.00;;;;;;;5.02;80.21;96611.50;2161273;82;21729;-70
2020/12/28 08:48:10;;;;;;;17.50;4.95;;;;;;;5.14;79.68;96594.20;2161153;82;21151;-68
2020/12/28 08:51:12;;;;;;;17.30;4.85;;;;;;;5.22;78.25;96590.20;2161322;82;21714;-67
2020/12/28 08:54:15;;;;;;;18.50;4.78;;;;;;;5.33;78.96;96596.69;2161495;82;21698;-69
2020/12/28 08:57:17;;;;;;;18.23;5.45;;;;;;;5.45;78.44;96580.66;2161281;82;21737;-70
2020/12/28 09:00:20;;;;;;;17.17;5.05;;;;;;;5.55;78.47;96587.63;2176746;82;21733;-70
2020/12/28 09:03:22;;;;;;;18.20;5.03;;;;;;;5.64;77.92;96580.08;2150781;82;21277;-69
2020/12/28 09:06:24;;;;;;;18.12;5.15;;;;;;;5.72;77.67;96564.23;2178567;82;21130;-66
2020/12/28 09:09:26;;;;;;;19.32;5.30;;;;;;;5.79;77.52;96567.64;2178736;82;21716;-66
2020/12/28 09:12:29;;;;;;;18.65;5.53;;;;;;;5.86;77.20;96564.47;2178661;82;21268;-70
2020/12/28 09:15:31;;;;;;;19.57;5.50;;;;;;;5.92;77.52;96554.06;2178976;82;21099;-69
2020/12/28 09:18:34;;;;;;;17.48;5.22;;;;;;;6.00;76.00;96547.78;2178659;82;21701;-66
2020/12/28 09:21:36;;;;;;;18.50;4.95;;;;;;;6.04;77.18;96549.20;2178463;82;21760;-72
2020/12/28 09:24:38;;;;;;;20.55;6.03;;;;;;;6.07;76.55;96542.94;2178494;82;21280;-66
2020/12/28 09:27:40;;;;;;;19.42;5.80;;;;;;;6.10;75.72;96536.19;2178770;82;21297;-69
2020/12/28 09:30:42;;;;;;;20.77;6.03;;;;;;;6.15;76.12;96531.91;2178750;82;21273;-70
2020/12/28 09:33:44;;;;;;;18.75;5.75;;;;;;;6.16;75.60;96521.86;2179005;82;21138;-69
2020/12/28 09:36:46;;;;;;;21.12;6.05;;;;;;;6.21;76.01;96522.33;2178543;82;21272;-65
2020/12/28 09:39:49;;;;;;;17.92;5.80;;;;;;;6.28;75.86;96509.63;2178968;82;21142;-65
2020/12/28 09:42:51;;;;;;;19.82;5.72;;;;;;;6.34;75.82;96502.64;2178507;82;21296;-66
2020/12/28 09:45:53;;;;;;;19.65;6.08;;;;;;;6.40;75.34;96507.34;2179522;82;21301;-66
2020/12/28 09:48:55;;;;;;;21.25;5.92;;;;;;;6.45;75.56;96519.98;2178557;82;21328;-66
2020/12/28 09:51:57;;;;;;;18.82;5.78;;;;;;;6.48;74.68;96502.80;2178975;82;21150;-66
2020/12/28 09:55:00;;;;;;;21.90;6.35;;;;;;;6.54;74.44;96501.03;2178491;82;21119;-65
2020/12/28 09:58:02;;;;;;;21.68;6.10;;;;;;;6.58;75.50;96487.62;2149966;81;21281;-66
2020/12/28 10:01:05;;;;;;;22.27;7.22;;;;;;;6.63;74.21;96495.53;2161313;82;21258;-67
2020/12/28 10:04:07;;;;;;;20.25;7.35;;;;;;;6.71;73.97;96481.38;2160892;82;21123;-66
2020/12/28 10:07:09;;;;;;;26.80;10.32;;;;;;;6.71;74.14;96489.20;2161477;82;21289;-67
2020/12/28 10:10:12;;;;;;;21.62;6.78;;;;;;;6.76;73.56;96494.87;2161169;82;21139;-66
2020/12/28 10:13:14;;;;;;;23.25;8.25;;;;;;;6.85;73.89;96491.52;2161539;82;21594;-65
2020/12/28 10:16:16;;;;;;;20.00;6.72;;;;;;;6.94;73.57;96485.52;2161028;82;21140;-66
2020/12/28 10:19:18;;;;;;;20.55;6.22;;;;;;;6.99;73.66;96498.66;2161517;82;21277;-67
2020/12/28 10:22:21;;;;;;;23.05;7.03;;;;;;;7.06;73.86;96499.30;2161049;82;21135;-66
2020/12/28 10:25:23;;;;;;;19.25;5.72;;;;;;;7.17;73.67;96501.48;2161080;82;21583;-67
2020/12/28 10:28:25;;;;;;;23.25;6.85;;;;;;;7.22;72.95;96497.53;2161299;82;21261;-65
2020/12/28 10:31:27;;;;;;;18.40;5.70;;;;;;;7.29;73.62;96493.94;2161270;82;21698;-65
2020/12/28 10:34:29;;;;;;;20.55;6.42;;;;;;;7.37;72.21;96488.06;2161401;82;21270;-65
2020/12/28 10:37:31;;;;;;;23.57;7.60;;;;;;;7.41;72.87;96484.23;2161502;82;21281;-65
2020/12/28 10:40:33;;;;;;;21.23;7.20;;;;;;;7.48;73.61;96471.02;2161049;82;21172;-67
2020/12/28 10:43:36;;;;;;;21.17;6.70;;;;;;;7.54;72.03;96479.64;2160996;82;21627;-66
2020/12/28 10:46:38;;;;;;;19.32;5.95;;;;;;;7.51;72.05;96464.72;2161283;82;21709;-66
2020/12/28 10:49:40;;;;;;;20.43;5.97;;;;;;;7.52;72.53;96453.34;2161019;82;21147;-66
2020/12/28 10:52:43;;;;;;;21.80;5.95;;;;;;;7.51;71.40;96437.33;2161017;82;21096;-65
2020/12/28 10:55:45;;;;;;;18.23;5.58;;;;;;;7.51;71.29;96430.81;2161321;82;21714;-65
2020/12/28 10:58:47;;;;;;;;;;;;;;;7.38;72.12;96424.52;2163408;81;21155;-66
2020/12/28 11:01:49;;;;;;;19.87;5.57;;;;;;;7.19;71.13;96412.25;2140239;82;20492;-68
2020/12/28 11:04:51;;;;;;;19.65;6.10;;;;;;;6.99;72.64;96410.03;2161078;82;21127;-66
2020/12/28 11:07:54;;;;;;;19.40;5.72;;;;;;;6.83;72.57;96410.02;2161196;82;21143;-65
2020/12/28 11:10:56;;;;;;;20.37;5.72;;;;;;;6.69;73.11;96402.05;2161041;82;21317;-69
2020/12/28 11:13:58;;;;;;;26.30;5.70;;;;;;;6.62;73.22;96400.10;2161520;82;21305;-65
2020/12/28 11:17:00;;;;;;;18.07;4.95;;;;;;;6.55;72.84;96397.17;2161433;82;21269;-65
2020/12/28 11:20:03;;;;;;;14.68;4.20;;;;;;;6.54;72.56;96392.94;2161223;82;21270;-66
2020/12/28 11:23:05;;;;;;;15.45;4.00;;;;;;;6.49;72.78;96394.60;2161221;82;21805;-65
2020/12/28 11:26:07;;;;;;;16.23;4.17;;;;;;;6.48;73.07;96398.64;2161580;82;21285;-66
2020/12/28 11:29:09;;;;;;;14.68;3.92;;;;;;;6.51;73.03;96405.73;2161219;82;21269;-66
2020/12/28 11:32:12;;;;;;;11.70;3.37;;;;;;;6.58;72.74;96404.76;2161455;82;21301;-68
2020/12/28 11:35:14;;;;;;;13.05;3.52;;;;;;;6.57;72.37;96405.70;2161451;82;21112;-67
2020/12/28 11:38:16;;;;;;;14.65;3.50;;;;;;;6.58;72.09;96417.30;2161324;82;21321;-65
2020/12/28 11:41:18;;;;;;;12.33;2.90;;;;;;;6.61;72.01;96415.38;2161264;82;21325;-65
2020/12/28 11:44:21;;;;;;;14.25;3.22;;;;;;;6.61;71.27;96409.70;2161045;82;21301;-67
2020/12/28 11:47:23;;;;;;;11.40;3.08;;;;;;;6.61;71.75;96409.70;2161333;82;21710;-65
2020/12/28 11:50:25;;;;;;;13.08;3.40;;;;;;;6.59;71.10;96417.66;2161649;82;21310;-69
2020/12/28 11:53:27;;;;;;;14.28;3.70;;;;;;;6.59;71.69;96407.69;2161431;82;21701;-65
2020/12/28 11:56:29;;;;;;;13.85;3.30;;;;;;;6.58;71.93;96413.39;2161445;82;21258;-66
2020/12/28 11:59:31;;;;;;;9.60;2.70;;;;;;;6.58;70.96;96398.25;2166832;81;21720;-66
2020/12/28 12:02:35;;;;;;;9.33;2.85;;;;;;;6.54;70.79;96394.24;2178682;82;21750;-65
2020/12/28 12:05:37;;;;;;;10.88;2.55;;;;;;;6.49;71.58;96398.50;2178570;82;21297;-66
2020/12/28 12:09:08;;;;;;;9.73;2.90;;;;;;;6.44;70.62;96379.86;2178679;82;21709;-65
2020/12/28 12:11:44;;;;;;;13.32;3.20;;;;;;;6.36;70.89;96383.56;2174494;82;21158;-67
2020/12/28 12:14:46;;;;;;;9.70;2.70;;;;;;;6.30;71.48;96391.89;2179075;82;21170;-66
2020/12/28 12:17:48;;;;;;;10.58;2.90;;;;;;;6.20;71.14;96397.83;2178728;82;21588;-65
2020/12/28 12:20:50;;;;;;;12.80;3.10;;;;;;;6.18;71.50;96411.95;2178792;82;21705;-65
2020/12/28 12:23:52;;;;;;;10.15;2.80;;;;;;;6.14;71.19;96407.94;2178578;82;21285;-65
2020/12/28 12:26:55;;;;;;;9.85;2.70;;;;;;;6.14;71.04;96408.75;2178575;82;21276;-65
2020/12/28 12:29:57;;;;;;;12.00;3.08;;;;;;;6.07;71.29;96403.22;2178502;82;21262;-65
2020/12/28 12:32:59;;;;;;;10.25;2.90;;;;;;;6.06;72.01;96379.92;2178740;82;21305;-66
2020/12/28 12:36:02;;;;;;;14.38;3.12;;;;;;;6.06;72.08;96371.66;2178676;82;21717;-66
2020/12/28 12:39:04;;;;;;;16.50;3.92;;;;;;;6.09;71.77;96369.25;2178569;82;21280;-65
2020/12/28 12:42:06;;;;;;;15.70;3.58;;;;;;;6.07;71.26;96365.96;2178796;82;21324;-65
2020/12/28 12:45:08;;;;;;;19.50;5.45;;;;;;;6.04;70.93;96354.51;2178803;82;21274;-66
2020/12/28 12:48:10;;;;;;;15.23;3.85;;;;;;;6.02;71.78;96353.34;2179031;82;21146;-66
2020/12/28 12:51:13;;;;;;;14.18;3.35;;;;;;;6.04;71.60;96363.13;2178827;82;21253;-65
2020/12/28 12:54:15;;;;;;;;;;;;;;;6.03;71.23;96367.16;2181386;82;21586;-65
2020/12/28 12:57:18;;;;;;;14.98;3.95;;;;;;;6.01;70.98;96357.37;2178795;82;20476;-65
2020/12/28 13:00:20;;;;;;;11.28;3.37;;;;;;;5.96;71.56;96364.22;2169825;81;21298;-65
2020/12/28 13:03:22;;;;;;;16.17;3.85;;;;;;;5.95;71.61;96348.70;2161096;82;21305;-65
2020/12/28 13:06:24;;;;;;;25.05;7.10;;;;;;;5.94;71.59;96360.91;2161600;82;21302;-65
2020/12/28 13:09:27;;;;;;;15.32;3.83;;;;;;;5.90;71.48;96355.14;2161194;82;21721;-65
2020/12/28 13:12:29;;;;;;;18.57;4.75;;;;;;;5.89;71.90;96360.47;2161531;82;21167;-66
2020/12/28 13:15:31;;;;;;;27.55;9.75;;;;;;;5.88;71.61;96357.51;2161232;82;21266;-66
2020/12/28 13:18:33;;;;;;;16.55;4.30;;;;;;;5.90;71.93;96369.91;2161590;82;21316;-66
2020/12/28 13:21:36;;;;;;;15.50;4.17;;;;;;;5.89;71.61;96366.97;2161125;82;21626;-69
2020/12/28 13:24:38;;;;;;;18.10;5.10;;;;;;;5.86;71.47;96381.50;2161211;82;21611;-68
2020/12/28 13:27:40;;;;;;;17.87;4.80;;;;;;;5.83;71.85;96380.00;2161216;82;21729;-67
2020/12/28 13:30:42;;;;;;;18.12;5.08;;;;;;;5.78;72.05;96370.43;2161347;82;21717;-66
2020/12/28 13:33:45;;;;;;;17.23;4.80;;;;;;;5.76;72.02;96383.20;2161130;82;21160;-65
2020/12/28 13:36:47;;;;;;;17.55;3.92;;;;;;;5.69;71.93;96388.09;2161241;82;21142;-65
2020/12/28 13:39:49;;;;;;;19.30;4.87;;;;;;;5.65;72.23;96407.48;2161424;82;21278;-65
2020/12/28 13:42:51;;;;;;;16.35;4.50;;;;;;;5.61;72.38;96416.47;2161281;82;21722;-66
2020/12/28 13:45:54;;;;;;;16.77;3.95;;;;;;;5.57;72.26;96424.98;2161123;82;21136;-67
2020/12/28 13:48:56;;;;;;;18.05;4.70;;;;;;;5.55;72.36;96423.80;2161318;82;21740;-65
2020/12/28 13:51:58;;;;;;;17.60;4.53;;;;;;;5.51;72.47;96426.28;2161122;82;21135;-65
2020/12/28 13:55:00;;;;;;;18.67;4.65;;;;;;;5.48;72.48;96426.53;2161464;82;21333;-65
2020/12/28 13:58:02;;;;;;;17.10;4.50;;;;;;;5.44;72.53;96421.21;2161587;82;21284;-70
2020/12/28 14:01:04;;;;;;;19.02;4.40;;;;;;;5.41;72.69;96425.36;2161214;81;21144;-69
2020/12/28 14:04:06;;;;;;;18.80;5.10;;;;;;;5.38;72.46;96442.50;2161063;82;21155;-68
2020/12/28 14:07:09;;;;;;;18.35;4.45;;;;;;;5.35;72.61;96449.24;2161191;82;21705;-66
2020/12/28 14:10:11;;;;;;;17.00;4.70;;;;;;;5.32;72.54;96453.38;2161272;82;21262;-65
2020/12/28 14:13:13;;;;;;;19.82;4.80;;;;;;;5.28;72.66;96455.86;2161336;82;21266;-65
2020/12/28 14:16:15;;;;;;;18.07;5.25;;;;;;;5.27;72.97;96464.14;2161229;82;21995;-66
2020/12/28 14:19:18;;;;;;;16.65;4.87;;;;;;;5.29;72.74;96448.43;2161044;82;21151;-66